Time;durP1;ratioP1;P1;durP2;ratioP2;P2;SDS_P1;SDS_P2;PMS_P1;PMS_P2;Temp;Humidity;BMP_temperature;BMP_pressure;BME280_temperature;BME280_humidity;BME280_pressure;Samples;Min_cycle;Max_cycle;Signal;HPM_P1;HPM_P2
2022/08/28 00:01:14;;;;;;;9.25;7.75;;;20.70;99.90;;;;;;5033295;28;20025;-73
2022/08/28 00:03:40;;;;;;;11.20;8.40;;;20.70;99.90;;;;;;5033671;28;20620;-73
2022/08/28 00:06:06;;;;;;;10.93;7.82;;;20.70;99.90;;;;;;5033088;28;20037;-74
2022/08/28 00:08:31;;;;;;;9.18;6.93;;;20.60;99.90;;;;;;5033444;28;20025;-73
2022/08/28 00:10:58;;;;;;;11.65;7.78;;;20.60;99.90;;;;;;5034040;28;20045;-72
2022/08/28 00:13:24;;;;;;;10.73;7.45;;;20.60;99.90;;;;;;5032598;28;20086;-73
2022/08/28 00:15:56;;;;;;;13.35;7.35;;;20.50;99.90;;;;;;5032834;28;20040;-73
2022/08/28 00:18:22;;;;;;;9.27;7.13;;;20.50;99.90;;;;;;5034803;28;20030;-73
2022/08/28 00:20:49;;;;;;;10.13;7.60;;;20.50;99.90;;;;;;5033548;28;20034;-73
2022/08/28 00:23:15;;;;;;;10.18;6.78;;;20.50;99.90;;;;;;5035065;28;20029;-73
2022/08/28 00:25:41;;;;;;;13.77;7.55;;;20.50;99.90;;;;;;5033325;28;20105;-72
2022/08/28 00:28:09;;;;;;;10.52;7.20;;;20.50;99.90;;;;;;5016272;28;20026;-72
2022/08/28 00:30:37;;;;;;;10.02;7.15;;;20.40;99.90;;;;;;5029495;28;20029;-72
2022/08/28 00:33:10;;;;;;;13.77;8.05;;;20.40;99.90;;;;;;5033527;28;20033;-72
2022/08/28 00:35:39;;;;;;;11.07;7.18;;;20.40;99.90;;;;;;5032829;28;20029;-72
2022/08/28 00:38:06;;;;;;;14.40;8.85;;;20.40;99.90;;;;;;5034240;28;20068;-73
2022/08/28 00:40:32;;;;;;;13.27;7.60;;;20.50;99.90;;;;;;5032713;28;20032;-73
2022/08/28 00:43:01;;;;;;;10.00;7.35;;;20.50;99.90;;;;;;5033943;28;20111;-73
2022/08/28 00:45:27;;;;;;;12.68;7.30;;;20.50;99.90;;;;;;5032277;28;20037;-74
2022/08/28 00:47:52;;;;;;;10.82;6.68;;;20.50;99.90;;;;;;5034486;28;20494;-74
2022/08/28 00:50:21;;;;;;;9.77;6.75;;;20.50;99.90;;;;;;5014938;28;20025;-74
2022/08/28 00:52:51;;;;;;;10.43;6.68;;;20.50;99.90;;;;;;5034353;28;20439;-73
2022/08/28 00:55:21;;;;;;;9.68;7.13;;;20.40;99.90;;;;;;5033411;28;20025;-75
2022/08/28 00:57:51;;;;;;;10.75;7.35;;;20.50;99.90;;;;;;5033185;28;20051;-75
2022/08/28 01:00:30;;;;;;;10.05;6.20;;;20.40;99.90;;;;;;5031354;28;20480;-73
2022/08/28 01:02:57;;;;;;;9.60;6.22;;;20.50;99.90;;;;;;5033337;28;20037;-72
2022/08/28 01:05:23;;;;;;;8.45;5.85;;;20.40;99.90;;;;;;5033125;28;20029;-72
2022/08/28 01:07:50;;;;;;;10.38;6.57;;;20.40;99.90;;;;;;5039067;28;20097;-71
2022/08/28 01:10:20;;;;;;;8.85;6.05;;;20.40;99.90;;;;;;5038414;28;20109;-72
2022/08/28 01:12:46;;;;;;;12.43;6.53;;;20.40;99.90;;;;;;5032818;28;20044;-72
2022/08/28 01:15:16;;;;;;;11.60;6.40;;;20.40;99.90;;;;;;5032553;28;20487;-72
2022/08/28 01:17:47;;;;;;;11.50;5.55;;;20.40;99.90;;;;;;5016044;28;20033;-72
2022/08/28 01:20:18;;;;;;;11.48;6.07;;;20.30;99.90;;;;;;5032017;28;20140;-72
2022/08/28 01:23:11;;;;;;;11.45;5.40;;;20.30;99.90;;;;;;5033713;28;20108;-72
2022/08/28 01:25:37;;;;;;;11.55;5.25;;;20.40;99.90;;;;;;5032282;28;20036;-72
2022/08/28 01:28:09;;;;;;;8.23;5.70;;;20.30;99.90;;;;;;5014387;28;20021;-72
2022/08/28 01:30:35;;;;;;;10.95;6.22;;;20.40;99.90;;;;;;5031061;28;20480;-72
2022/08/28 01:33:01;;;;;;;8.55;5.93;;;20.30;99.90;;;;;;5032597;28;20041;-72
2022/08/28 01:35:34;;;;;;;8.55;5.63;;;20.30;99.90;;;;;;5032562;28;20048;-72
2022/08/28 01:38:00;;;;;;;12.20;5.65;;;20.30;99.90;;;;;;5014581;28;20053;-74
2022/08/28 01:40:36;;;;;;;7.85;5.88;;;20.30;99.90;;;;;;5030350;28;20049;-73
2022/08/28 01:43:14;;;;;;;14.63;5.95;;;20.40;99.90;;;;;;5031288;28;20037;-73
2022/08/28 01:45:43;;;;;;;8.65;5.43;;;20.30;99.90;;;;;;5032738;28;20029;-73
2022/08/28 01:48:10;;;;;;;10.05;6.10;;;20.30;99.90;;;;;;5031750;28;20021;-73
2022/08/28 01:50:38;;;;;;;9.23;6.10;;;20.30;99.90;;;;;;5028400;28;20137;-74
2022/08/28 01:53:04;;;;;;;9.65;6.43;;;20.30;99.90;;;;;;5033188;28;20041;-73
2022/08/28 01:55:32;;;;;;;12.18;7.07;;;20.30;99.90;;;;;;5031723;28;20056;-72
2022/08/28 01:57:58;;;;;;;14.73;7.25;;;20.20;99.90;;;;;;5032204;28;20108;-72
2022/08/28 02:00:26;;;;;;;10.30;6.85;;;20.30;99.90;;;;;;5031536;28;20227;-72
2022/08/28 02:02:54;;;;;;;10.77;7.30;;;20.20;99.90;;;;;;5031413;28;20042;-72
2022/08/28 02:05:21;;;;;;;10.73;7.15;;;20.20;99.90;;;;;;5031897;28;20029;-73
2022/08/28 02:07:47;;;;;;;10.52;7.93;;;20.20;99.90;;;;;;5032362;28;20040;-72
2022/08/28 02:10:13;;;;;;;13.40;7.72;;;20.20;99.90;;;;;;5031160;28;20037;-74
2022/08/28 02:12:40;;;;;;;10.18;8.10;;;20.30;99.90;;;;;;5033088;28;20033;-72
2022/08/28 02:15:06;;;;;;;11.77;9.00;;;20.20;99.90;;;;;;5031655;28;20029;-72
2022/08/28 02:17:33;;;;;;;11.32;7.53;;;20.20;99.90;;;;;;5032474;28;20030;-72
2022/08/28 02:19:59;;;;;;;13.80;8.38;;;20.30;99.90;;;;;;5031246;28;20026;-72
2022/08/28 02:22:25;;;;;;;10.02;8.23;;;20.30;99.90;;;;;;5031438;28;20480;-72
2022/08/28 02:24:51;;;;;;;11.25;7.95;;;20.30;99.90;;;;;;5030774;28;20472;-72
2022/08/28 02:27:17;;;;;;;13.63;8.88;;;20.30;99.90;;;;;;5020416;28;20380;-72
2022/08/28 02:29:43;;;;;;;13.75;8.20;;;20.30;99.90;;;;;;5029829;28;20026;-72
2022/08/28 02:32:09;;;;;;;19.17;9.63;;;20.30;99.90;;;;;;5013333;28;20410;-72
2022/08/28 02:34:35;;;;;;;12.43;9.35;;;20.30;99.90;;;;;;5030053;28;20472;-71
2022/08/28 02:37:01;;;;;;;12.55;8.95;;;20.30;99.90;;;;;;5030164;28;20141;-71
2022/08/28 02:39:27;;;;;;;11.50;8.55;;;20.30;99.90;;;;;;5031874;28;20033;-71
2022/08/28 02:41:53;;;;;;;10.90;8.80;;;20.40;99.90;;;;;;5031248;28;20503;-71
2022/08/28 02:44:18;;;;;;;11.23;8.88;;;20.40;99.90;;;;;;5031311;28;20534;-72
2022/08/28 02:46:44;;;;;;;14.15;8.77;;;20.40;99.90;;;;;;5031020;28;20033;-72
2022/08/28 02:49:10;;;;;;;14.63;9.15;;;20.40;99.90;;;;;;5031909;28;20082;-73
2022/08/28 02:51:35;;;;;;;12.52;9.95;;;20.40;99.90;;;;;;5031375;28;20042;-73
2022/08/28 02:54:03;;;;;;;13.68;8.90;;;20.30;99.90;;;;;;5031848;28;20091;-74
2022/08/28 02:56:29;;;;;;;12.27;8.68;;;20.40;99.90;;;;;;5030944;28;20037;-73
2022/08/28 02:58:55;;;;;;;15.27;8.65;;;20.30;99.90;;;;;;5013621;28;20037;-73
2022/08/28 03:01:21;;;;;;;13.13;8.55;;;20.30;99.90;;;;;;5029891;28;20033;-73
2022/08/28 03:03:47;;;;;;;15.35;9.23;;;20.30;99.90;;;;;;5032365;28;20538;-73
2022/08/28 03:06:13;;;;;;;14.70;8.48;;;20.30;99.90;;;;;;5030936;28;20412;-74
2022/08/28 03:08:40;;;;;;;11.68;7.75;;;20.30;99.90;;;;;;5031591;28;20040;-73
2022/08/28 03:11:06;;;;;;;15.45;8.85;;;20.30;99.90;;;;;;5029913;28;20610;-73
2022/08/28 03:13:32;;;;;;;12.00;7.38;;;20.30;99.90;;;;;;5031725;28;20065;-73
2022/08/28 03:15:58;;;;;;;15.00;7.63;;;20.30;99.90;;;;;;5027662;28;20099;-74
2022/08/28 03:18:26;;;;;;;10.82;6.80;;;20.30;99.90;;;;;;5031235;28;20028;-75
2022/08/28 03:20:52;;;;;;;17.73;7.95;;;20.30;99.90;;;;;;5030008;28;20039;-74
2022/08/28 03:23:27;;;;;;;15.05;7.75;;;20.30;99.90;;;;;;5031310;28;20057;-74
2022/08/28 03:26:01;;;;;;;15.35;7.93;;;20.20;99.90;;;;;;5030403;28;20030;-74
2022/08/28 03:28:29;;;;;;;12.50;7.03;;;20.20;99.90;;;;;;5036233;28;20041;-74
2022/08/28 03:30:57;;;;;;;11.73;6.80;;;20.20;99.90;;;;;;5039130;28;20099;-74
2022/08/28 03:33:23;;;;;;;10.25;6.57;;;20.20;99.90;;;;;;5032910;28;20112;-74
2022/08/28 03:35:49;;;;;;;13.68;6.78;;;20.10;99.90;;;;;;5030569;28;20030;-73
2022/08/28 03:38:16;;;;;;;11.30;6.68;;;20.20;99.90;;;;;;5031692;28;20128;-73
2022/08/28 03:40:44;;;;;;;10.02;6.72;;;20.10;99.90;;;;;;5030448;28;20029;-73
2022/08/28 03:43:12;;;;;;;12.00;6.65;;;20.10;99.90;;;;;;5031222;28;20026;-73
2022/08/28 03:45:39;;;;;;;13.57;6.40;;;20.10;99.90;;;;;;5030718;28;20071;-73
2022/08/28 03:48:06;;;;;;;8.55;6.55;;;20.10;99.90;;;;;;5030488;28;20384;-73
2022/08/28 03:50:32;;;;;;;14.10;7.00;;;20.00;99.90;;;;;;5028184;28;20040;-72
2022/08/28 03:52:58;;;;;;;12.68;6.25;;;20.10;99.90;;;;;;5031717;28;20480;-72
2022/08/28 03:55:24;;;;;;;10.05;6.25;;;20.10;99.90;;;;;;5028007;28;20105;-73
2022/08/28 03:57:50;;;;;;;8.63;6.13;;;20.00;99.90;;;;;;5022692;28;20082;-72
2022/08/28 04:00:17;;;;;;;8.48;4.95;;;20.00;99.90;;;;;;5030602;28;20116;-72
2022/08/28 04:02:44;;;;;;;10.10;5.78;;;20.00;99.90;;;;;;5029349;28;20511;-71
2022/08/28 04:05:11;;;;;;;12.23;6.03;;;20.00;99.90;;;;;;5030296;28;20042;-72
2022/08/28 04:07:36;;;;;;;8.13;4.93;;;20.00;99.90;;;;;;5030053;28;20034;-71
2022/08/28 04:10:03;;;;;;;11.00;6.28;;;20.00;99.90;;;;;;5029882;28;20511;-73
2022/08/28 04:12:29;;;;;;;7.25;5.00;;;20.00;99.90;;;;;;5029948;28;20040;-73
2022/08/28 04:14:54;;;;;;;7.43;5.05;;;20.00;99.90;;;;;;5031229;28;20029;-72
2022/08/28 04:17:20;;;;;;;12.30;5.50;;;20.00;99.90;;;;;;5031026;28;20188;-72
2022/08/28 04:19:45;;;;;;;10.90;5.53;;;19.90;99.90;;;;;;5030714;28;20053;-73
2022/08/28 04:22:11;;;;;;;12.70;5.47;;;19.90;99.90;;;;;;5033490;28;20021;-72
2022/08/28 04:24:37;;;;;;;10.68;4.85;;;19.80;99.90;;;;;;5031670;28;20029;-72
2022/08/28 04:27:02;;;;;;;9.23;4.95;;;19.80;99.90;;;;;;5034101;28;20068;-72
2022/08/28 04:29:30;;;;;;;14.82;5.25;;;19.80;99.90;;;;;;5033591;28;20045;-72
2022/08/28 04:31:57;;;;;;;11.85;4.78;;;19.70;99.90;;;;;;5033222;28;20056;-75
2022/08/28 04:34:23;;;;;;;9.90;4.35;;;19.70;99.90;;;;;;5034670;28;20124;-72
2022/08/28 04:36:51;;;;;;;11.38;5.00;;;19.70;99.90;;;;;;5032888;28;20048;-69
2022/08/28 04:39:17;;;;;;;8.35;4.55;;;19.80;99.90;;;;;;5033046;28;20049;-69
2022/08/28 04:41:43;;;;;;;8.43;4.47;;;19.80;99.90;;;;;;5033161;28;20052;-67
2022/08/28 04:44:08;;;;;;;7.90;4.43;;;19.80;99.90;;;;;;5033668;28;20033;-67
2022/08/28 04:46:34;;;;;;;10.25;4.68;;;19.80;99.90;;;;;;5032811;28;20034;-68
2022/08/28 04:49:00;;;;;;;9.88;4.45;;;19.80;99.90;;;;;;5034270;28;20065;-69
2022/08/28 04:51:26;;;;;;;8.73;4.75;;;19.80;99.90;;;;;;5031496;28;20068;-69
2022/08/28 04:53:52;;;;;;;9.43;4.60;;;19.80;99.90;;;;;;5016450;28;20025;-70
2022/08/28 04:56:18;;;;;;;9.93;4.28;;;19.80;99.90;;;;;;5033044;28;20065;-69
2022/08/28 04:58:44;;;;;;;10.15;4.90;;;19.80;99.90;;;;;;5034399;28;20075;-69
2022/08/28 05:01:14;;;;;;;8.38;4.13;;;19.80;99.90;;;;;;5032437;28;20418;-70
2022/08/28 05:03:41;;;;;;;11.45;4.28;;;19.80;99.90;;;;;;5033683;28;20041;-70
2022/08/28 05:06:07;;;;;;;7.68;4.60;;;19.80;99.90;;;;;;5032957;28;20044;-70
2022/08/28 05:08:33;;;;;;;7.18;4.15;;;19.80;99.90;;;;;;5015470;28;20163;-69
2022/08/28 05:11:13;;;;;;;9.32;4.28;;;19.70;99.90;;;;;;5030143;28;20037;-69
2022/08/28 05:13:39;;;;;;;6.97;3.95;;;19.70;99.90;;;;;;5015454;28;20496;-72
2022/08/28 05:16:06;;;;;;;12.35;4.57;;;19.80;99.90;;;;;;5023799;28;20034;-69
2022/08/28 05:18:31;;;;;;;11.60;6.80;;;19.80;99.90;;;;;;5027306;28;20025;-69
2022/08/28 05:20:57;;;;;;;13.48;8.52;;;19.70;99.90;;;;;;5032528;28;20472;-68
2022/08/28 05:23:23;;;;;;;14.75;7.00;;;19.70;99.90;;;;;;5032546;28;20026;-68
2022/08/28 05:25:49;;;;;;;11.95;4.68;;;19.70;99.90;;;;;;5031905;28;20029;-69
2022/08/28 05:28:16;;;;;;;12.00;5.07;;;19.70;99.90;;;;;;5032651;28;20027;-68
2022/08/28 05:30:42;;;;;;;11.85;4.20;;;19.70;99.90;;;;;;5014464;28;20052;-68
2022/08/28 05:33:10;;;;;;;9.30;4.20;;;19.60;99.90;;;;;;5031661;28;20036;-68
2022/08/28 05:35:37;;;;;;;11.10;4.05;;;19.60;99.90;;;;;;5032313;28;22012;-69
2022/08/28 05:38:04;;;;;;;9.90;4.25;;;19.50;99.90;;;;;;5032619;28;20053;-71
2022/08/28 05:40:30;;;;;;;12.20;4.00;;;19.50;99.90;;;;;;5031632;28;20033;-70
2022/08/28 05:42:56;;;;;;;10.80;3.88;;;19.50;99.90;;;;;;5033094;28;20033;-69
2022/08/28 05:45:23;;;;;;;8.48;3.40;;;19.50;99.90;;;;;;5028356;28;20562;-69
2022/08/28 05:47:50;;;;;;;12.95;4.43;;;19.50;99.90;;;;;;5015964;28;20030;-69
2022/08/28 05:50:17;;;;;;;11.88;4.47;;;19.40;99.90;;;;;;5027425;28;20033;-69
2022/08/28 05:52:45;;;;;;;10.27;3.78;;;19.50;99.90;;;;;;5033962;28;20073;-69
2022/08/28 05:55:11;;;;;;;11.55;4.38;;;19.40;99.90;;;;;;5032360;28;20148;-69
2022/08/28 05:57:39;;;;;;;16.58;4.00;;;19.50;99.90;;;;;;5033125;28;20033;-69
2022/08/28 06:00:12;;;;;;;11.90;4.75;;;19.50;99.90;;;;;;5031823;28;20022;-69
2022/08/28 06:02:39;;;;;;;8.73;3.88;;;19.50;99.90;;;;;;5026711;28;20034;-69
2022/08/28 06:05:06;;;;;;;10.45;4.70;;;19.50;99.90;;;;;;5031967;28;20055;-69
2022/08/28 06:07:32;;;;;;;7.47;3.83;;;19.40;99.90;;;;;;5032683;28;20060;-69
2022/08/28 06:09:59;;;;;;;11.55;4.85;;;19.40;99.90;;;;;;5031578;28;20480;-69
2022/08/28 06:12:25;;;;;;;11.23;4.22;;;19.40;99.90;;;;;;5031659;28;20403;-70
2022/08/28 06:14:51;;;;;;;10.10;3.80;;;19.40;99.90;;;;;;5031555;28;20042;-70
2022/08/28 06:17:17;;;;;;;8.18;4.18;;;19.40;99.90;;;;;;5026785;28;20543;-69
2022/08/28 06:19:42;;;;;;;16.25;5.57;;;19.40;99.90;;;;;;5029849;28;20112;-69
2022/08/28 06:22:11;;;;;;;11.70;5.22;;;19.50;99.90;;;;;;5031565;28;20033;-69
2022/08/28 06:24:37;;;;;;;12.50;4.57;;;19.50;99.90;;;;;;5030949;28;20484;-71
2022/08/28 06:27:03;;;;;;;11.68;4.32;;;19.50;99.90;;;;;;5028442;28;20037;-71
2022/08/28 06:29:29;;;;;;;8.43;4.15;;;19.50;99.90;;;;;;5031384;28;20036;-70
2022/08/28 06:32:00;;;;;;;12.40;4.40;;;19.50;99.90;;;;;;5015394;28;20037;-70
2022/08/28 06:34:26;;;;;;;13.82;5.60;;;19.50;99.90;;;;;;5030495;28;20152;-70
2022/08/28 06:36:52;;;;;;;14.27;4.03;;;19.60;99.90;;;;;;5029540;28;20054;-70
2022/08/28 06:39:18;;;;;;;8.70;4.22;;;19.70;99.90;;;;;;5018821;28;20029;-71
2022/08/28 06:41:43;;;;;;;11.55;4.20;;;19.80;99.90;;;;;;5010291;28;20023;-70
2022/08/28 06:44:18;;;;;;;10.27;4.70;;;19.90;99.90;;;;;;5029097;28;20041;-70
2022/08/28 06:46:45;;;;;;;14.52;4.93;;;19.80;99.90;;;;;;5024969;28;20032;-70
2022/08/28 06:49:11;;;;;;;10.48;4.15;;;19.80;99.90;;;;;;5030758;28;20136;-70
2022/08/28 06:51:37;;;;;;;7.80;4.07;;;19.80;99.90;;;;;;5025715;28;20045;-69
2022/08/28 06:54:04;;;;;;;10.00;4.05;;;19.80;99.90;;;;;;5023201;28;20112;-71
2022/08/28 06:56:31;;;;;;;10.13;4.28;;;19.80;99.90;;;;;;5027499;28;20061;-69
2022/08/28 06:58:58;;;;;;;11.13;4.32;;;19.80;99.90;;;;;;5030314;28;20026;-69
2022/08/28 07:01:33;;;;;;;10.25;4.45;;;19.80;99.90;;;;;;5029632;28;20034;-72
2022/08/28 07:04:08;;;;;;;17.30;5.13;;;19.70;99.90;;;;;;5012736;28;20034;-72
2022/08/28 07:06:37;;;;;;;11.02;4.90;;;19.60;99.90;;;;;;5031162;28;20564;-69
2022/08/28 07:09:05;;;;;;;9.85;4.65;;;19.60;99.90;;;;;;5014077;28;20107;-72
2022/08/28 07:11:33;;;;;;;14.50;4.90;;;19.70;99.90;;;;;;5030213;28;20377;-72
2022/08/28 07:14:00;;;;;;;11.75;4.50;;;19.70;99.90;;;;;;5030790;28;20041;-70
2022/08/28 07:16:29;;;;;;;9.00;4.55;;;19.80;99.90;;;;;;5027978;28;20037;-70
2022/08/28 07:18:56;;;;;;;10.30;4.40;;;19.80;99.90;;;;;;5027471;28;20040;-70
2022/08/28 07:21:22;;;;;;;10.65;4.20;;;19.90;99.90;;;;;;5027276;28;20057;-70
2022/08/28 07:23:48;;;;;;;11.75;4.18;;;20.00;99.90;;;;;;5026140;28;20116;-71
2022/08/28 07:28:51;;;;;;;8.77;4.60;;;20.10;99.90;;;;;;5443322;22;20068;-70
2022/08/28 07:35:15;;;;;;;11.77;4.88;;;20.30;99.90;;;;;;5027083;28;20033;-71
2022/08/28 07:37:42;;;;;;;10.13;4.20;;;20.40;99.90;;;;;;5025315;28;20036;-71
2022/08/28 07:40:09;;;;;;;10.27;4.35;;;20.50;99.90;;;;;;5007325;28;20030;-71
2022/08/28 07:45:20;;;;;;;12.60;4.53;;;20.60;99.90;;;;;;5022079;28;20021;-71
2022/08/28 07:47:46;;;;;;;8.85;4.75;;;20.70;99.90;;;;;;5022167;28;20030;-71
2022/08/28 07:50:12;;;;;;;11.02;5.05;;;20.70;99.90;;;;;;5024720;28;20033;-71
2022/08/28 07:52:38;;;;;;;12.00;4.30;;;20.70;99.90;;;;;;5048882;28;20053;-69
2022/08/28 07:55:05;;;;;;;8.15;4.32;;;20.70;99.90;;;;;;5032253;28;20026;-70
2022/08/28 07:57:30;;;;;;;11.32;4.57;;;20.80;99.90;;;;;;5046962;28;20044;-70
2022/08/28 08:00:04;;;;;;;15.65;4.68;;;20.80;99.90;;;;;;5042156;28;20025;-70
2022/08/28 08:02:29;;;;;;;8.15;4.20;;;20.90;99.90;;;;;;5045259;28;20025;-71
2022/08/28 08:04:55;;;;;;;7.43;4.28;;;20.90;99.90;;;;;;5048261;28;20036;-70
2022/08/28 08:07:21;;;;;;;6.72;4.25;;;20.90;99.90;;;;;;5031334;28;20026;-70
2022/08/28 08:09:48;;;;;;;6.93;4.03;;;21.10;99.90;;;;;;5042575;28;20034;-70
2022/08/28 08:12:14;;;;;;;9.90;4.30;;;21.10;99.90;;;;;;5029317;28;20038;-70
2022/08/28 08:14:41;;;;;;;7.55;4.30;;;21.00;99.80;;;;;;5020301;28;20100;-70
2022/08/28 08:17:08;;;;;;;12.05;4.97;;;21.10;99.70;;;;;;5020943;28;20502;-69
2022/08/28 08:19:34;;;;;;;10.50;4.40;;;21.00;99.60;;;;;;5029159;28;20083;-71
2022/08/28 08:22:00;;;;;;;8.40;3.72;;;21.10;99.70;;;;;;5021751;28;20033;-70
2022/08/28 08:24:27;;;;;;;10.80;4.93;;;21.10;99.80;;;;;;5022090;28;20026;-70
2022/08/28 08:27:00;;;;;;;9.70;4.30;;;21.10;99.70;;;;;;5033734;28;20026;-71
2022/08/28 08:29:34;;;;;;;8.75;4.28;;;21.10;99.70;;;;;;5032004;28;20126;-71
2022/08/28 08:32:04;;;;;;;7.93;4.57;;;21.00;99.40;;;;;;5033620;28;20041;-69
2022/08/28 08:34:31;;;;;;;8.30;4.20;;;21.00;99.30;;;;;;5031681;28;20491;-70
2022/08/28 08:36:56;;;;;;;9.10;4.65;;;21.00;99.30;;;;;;5032030;28;20033;-70
2022/08/28 08:39:23;;;;;;;10.23;4.78;;;21.00;99.20;;;;;;5032265;28;20491;-69
2022/08/28 08:41:54;;;;;;;9.57;4.18;;;20.90;99.40;;;;;;5032144;28;20033;-70
2022/08/28 08:44:24;;;;;;;8.55;4.13;;;20.90;99.50;;;;;;5033285;28;20112;-70
2022/08/28 08:47:01;;;;;;;7.85;4.78;;;20.90;99.30;;;;;;5020576;28;20065;-70
2022/08/28 08:49:34;;;;;;;8.15;4.60;;;20.90;99.20;;;;;;5024327;28;20030;-72
2022/08/28 08:52:20;;;;;;;7.07;4.13;;;21.00;99.00;;;;;;5022507;28;20045;-69
2022/08/28 08:55:06;;;;;;;8.57;4.35;;;21.00;99.10;;;;;;5021274;28;20028;-69
2022/08/28 08:57:34;;;;;;;8.75;3.97;;;20.90;98.80;;;;;;5010276;28;20022;-69
2022/08/28 09:00:03;;;;;;;8.30;4.22;;;20.90;98.80;;;;;;5021937;28;20040;-70
2022/08/28 09:02:35;;;;;;;6.97;4.00;;;21.00;99.20;;;;;;5012308;28;20050;-70
2022/08/28 09:05:09;;;;;;;9.18;4.53;;;21.00;99.30;;;;;;5004091;28;20031;-71
2022/08/28 09:07:47;;;;;;;10.13;4.72;;;21.10;99.20;;;;;;5025393;28;20040;-70
2022/08/28 09:10:14;;;;;;;8.02;4.25;;;21.10;98.70;;;;;;5015762;28;20034;-70
2022/08/28 09:13:08;;;;;;;10.75;4.25;;;21.10;99.10;;;;;;5027546;28;20045;-71
2022/08/28 09:15:45;;;;;;;9.73;5.25;;;21.10;99.10;;;;;;5027228;28;20030;-70
2022/08/28 09:18:16;;;;;;;12.75;5.05;;;21.20;98.70;;;;;;5015561;28;20041;-71
2022/08/28 09:20:42;;;;;;;13.15;5.38;;;21.20;98.60;;;;;;5023435;28;20445;-70
2022/08/28 09:23:07;;;;;;;9.57;4.55;;;21.20;98.60;;;;;;5013663;28;20134;-70
2022/08/28 09:25:50;;;;;;;8.93;4.55;;;21.40;98.70;;;;;;5029246;28;20028;-70
2022/08/28 09:28:37;;;;;;;16.42;5.80;;;21.40;98.60;;;;;;5029021;28;20045;-70
2022/08/28 09:31:03;;;;;;;8.43;4.45;;;21.40;98.50;;;;;;5027606;28;20401;-70
2022/08/28 09:33:30;;;;;;;8.77;5.05;;;21.40;98.40;;;;;;5026463;28;20026;-71
2022/08/28 09:35:56;;;;;;;13.68;5.93;;;21.40;98.40;;;;;;5017055;28;20040;-70
2022/08/28 09:38:24;;;;;;;9.63;4.78;;;21.30;98.30;;;;;;5029838;28;20022;-70
2022/08/28 09:43:52;;;;;;;9.23;4.88;;;21.50;98.20;;;;;;5030142;28;20092;-70
2022/08/28 09:49:40;;;;;;;11.65;4.35;;;21.20;98.00;;;;;;5027287;28;20053;-69
2022/08/28 09:52:18;;;;;;;10.50;5.47;;;21.20;98.60;;;;;;5022546;28;20483;-70
2022/08/28 09:54:44;;;;;;;8.10;4.85;;;21.20;98.50;;;;;;5031911;28;20029;-69
2022/08/28 09:57:10;;;;;;;8.25;4.35;;;21.30;98.60;;;;;;5031018;28;20479;-69
2022/08/28 09:59:36;;;;;;;10.00;4.63;;;21.40;98.40;;;;;;5026324;28;20044;-70
2022/08/28 10:02:05;;;;;;;9.45;5.40;;;21.40;98.40;;;;;;5029766;28;20021;-69
2022/08/28 10:04:53;;;;;;;10.77;4.82;;;21.40;98.30;;;;;;5018706;28;20089;-70
2022/08/28 10:07:38;;;;;;;8.73;4.53;;;21.40;98.40;;;;;;5029540;28;20033;-70
2022/08/28 10:10:20;;;;;;;10.23;4.72;;;21.40;98.20;;;;;;5029445;28;20021;-69
2022/08/28 10:13:05;;;;;;;7.70;4.10;;;21.40;98.20;;;;;;5025406;28;20099;-71
2022/08/28 10:15:52;;;;;;;9.48;5.40;;;21.40;98.30;;;;;;5027705;28;20034;-70
2022/08/28 10:18:57;;;;;;;11.20;5.05;;;21.50;98.10;;;;;;5027964;28;20045;-70
2022/08/28 10:21:36;;;;;;;10.30;5.40;;;21.40;97.90;;;;;;5002704;28;20029;-69
2022/08/28 10:24:02;;;;;;;5.72;4.80;;;21.30;98.10;;;;;;5023724;28;20044;-70
2022/08/28 10:27:05;;;;;;;7.60;4.43;;;21.20;98.20;;;;;;5030782;28;20478;-70
2022/08/28 10:29:57;;;;;;;10.32;5.57;;;21.30;98.30;;;;;;5019824;28;20451;-69
2022/08/28 10:32:41;;;;;;;14.25;6.13;;;21.30;98.20;;;;;;5019426;28;20418;-71
2022/08/28 10:35:20;;;;;;;9.00;5.15;;;21.30;98.30;;;;;;5032271;28;20431;-71
2022/08/28 10:37:57;;;;;;;9.60;5.20;;;21.30;98.30;;;;;;5029189;28;20041;-71
2022/08/28 10:40:52;;;;;;;8.95;5.63;;;21.40;98.50;;;;;;5009803;28;20123;-71
2022/08/28 10:43:39;;;;;;;9.82;5.38;;;21.40;98.50;;;;;;5027662;28;20044;-71
2022/08/28 10:46:13;;;;;;;11.38;6.45;;;21.40;98.20;;;;;;5026219;28;20657;-70
2022/08/28 10:48:45;;;;;;;11.40;6.40;;;21.30;98.00;;;;;;5026622;28;20081;-71
2022/08/28 10:51:24;;;;;;;8.75;5.40;;;21.20;98.30;;;;;;5014874;28;20479;-71
2022/08/28 10:53:54;;;;;;;9.05;5.13;;;21.10;98.10;;;;;;5019302;28;20077;-71
2022/08/28 10:56:29;;;;;;;8.05;5.00;;;21.00;98.30;;;;;;5025488;28;20590;-71
2022/08/28 10:59:00;;;;;;;7.47;4.88;;;21.00;98.40;;;;;;5024310;28;20049;-71
2022/08/28 11:01:38;;;;;;;9.95;5.90;;;21.00;98.40;;;;;;5024242;28;20496;-70
2022/08/28 11:04:08;;;;;;;9.25;5.50;;;21.00;98.50;;;;;;5028448;28;20037;-71
2022/08/28 11:06:44;;;;;;;7.57;5.15;;;21.00;98.50;;;;;;5022940;28;20492;-68
2022/08/28 11:09:24;;;;;;;9.38;5.45;;;20.90;98.40;;;;;;5006967;28;20025;-73
2022/08/28 11:11:58;;;;;;;8.77;5.55;;;20.90;98.50;;;;;;5027835;28;20506;-71
2022/08/28 11:14:30;;;;;;;7.93;5.07;;;21.00;98.60;;;;;;5028480;28;20075;-70
2022/08/28 11:17:04;;;;;;;6.28;4.75;;;21.00;98.50;;;;;;5024596;28;20033;-71
2022/08/28 11:19:39;;;;;;;8.27;5.68;;;21.00;98.40;;;;;;5030193;28;20029;-70
2022/08/28 11:22:20;;;;;;;10.48;6.07;;;20.90;98.50;;;;;;5028592;28;20060;-70
2022/08/28 11:25:04;;;;;;;8.57;5.40;;;20.80;98.40;;;;;;5016518;28;20049;-70
2022/08/28 11:27:35;;;;;;;8.88;5.80;;;20.90;98.50;;;;;;5028883;28;20032;-70
2022/08/28 11:30:10;;;;;;;9.88;5.50;;;20.80;98.50;;;;;;5032780;28;20067;-70
2022/08/28 11:32:54;;;;;;;;;;;20.80;98.70;;;;;;5025130;28;20052;-71
2022/08/28 11:35:19;;;;;;;11.35;5.70;;;20.90;98.80;;;;;;5033217;28;20007;-70
2022/08/28 11:37:50;;;;;;;10.27;5.53;;;20.80;98.70;;;;;;5032313;28;20112;-71
2022/08/28 11:40:19;;;;;;;7.85;4.93;;;20.80;98.80;;;;;;5016865;28;20471;-70
2022/08/28 11:42:48;;;;;;;11.25;5.72;;;20.80;98.80;;;;;;5025539;28;20097;-71
2022/08/28 11:45:46;;;;;;;11.60;6.15;;;20.80;98.90;;;;;;5023716;28;20030;-70
2022/08/28 11:48:24;;;;;;;10.85;5.88;;;20.70;98.60;;;;;;5019189;28;20056;-70
2022/08/28 11:50:55;;;;;;;10.20;5.05;;;20.80;98.80;;;;;;5032408;28;20037;-70
2022/08/28 11:53:50;;;;;;;11.27;5.15;;;20.80;98.80;;;;;;5027172;28;20042;-70
2022/08/28 11:56:37;;;;;;;7.68;4.95;;;20.80;98.70;;;;;;5016082;28;20033;-71
2022/08/28 11:59:31;;;;;;;9.07;5.47;;;20.80;98.70;;;;;;5031760;28;20033;-70
2022/08/28 12:02:34;;;;;;;10.63;5.47;;;20.90;98.80;;;;;;5022971;28;20061;-70
2022/08/28 12:05:11;;;;;;;8.63;5.32;;;20.90;98.70;;;;;;5033446;28;20396;-70
2022/08/28 12:07:43;;;;;;;11.73;6.55;;;20.90;98.70;;;;;;5028035;28;20081;-69
2022/08/28 12:10:25;;;;;;;10.45;5.20;;;21.00;98.60;;;;;;5025693;28;20038;-70
2022/08/28 12:12:58;;;;;;;9.07;5.60;;;21.00;98.70;;;;;;5018695;28;20164;-71
2022/08/28 12:15:26;;;;;;;10.63;5.95;;;21.00;98.80;;;;;;5034680;28;20044;-71
2022/08/28 12:18:00;;;;;;;8.80;5.50;;;21.00;98.60;;;;;;5032325;28;20480;-71
2022/08/28 12:20:55;;;;;;;9.23;5.55;;;21.00;98.60;;;;;;5018254;28;20040;-71
2022/08/28 12:23:40;;;;;;;6.55;5.50;;;20.90;98.60;;;;;;5035894;28;20037;-70
2022/08/28 12:26:11;;;;;;;10.43;5.70;;;21.00;98.60;;;;;;5023898;28;20040;-70
2022/08/28 12:28:56;;;;;;;9.88;5.93;;;21.00;98.50;;;;;;5022116;28;20149;-70
2022/08/28 12:32:10;;;;;;;12.80;5.03;;;21.10;98.70;;;;;;5018442;28;20048;-70
2022/08/28 12:34:42;;;;;;;11.82;5.85;;;21.10;98.70;;;;;;5027180;28;20029;-70
2022/08/28 12:37:39;;;;;;;11.80;6.18;;;21.00;98.80;;;;;;5017384;28;20029;-70
2022/08/28 12:40:39;;;;;;;12.85;5.63;;;21.00;98.60;;;;;;4994430;28;20025;-69
2022/08/28 12:43:08;;;;;;;9.95;6.30;;;21.00;98.70;;;;;;5006478;28;20030;-70
2022/08/28 12:45:39;;;;;;;9.00;6.10;;;21.00;98.60;;;;;;5026385;28;20195;-70
2022/08/28 12:48:23;;;;;;;10.95;5.68;;;21.10;98.70;;;;;;5024941;28;20025;-70
2022/08/28 12:51:11;;;;;;;14.53;6.77;;;21.10;98.60;;;;;;5025681;28;20078;-70
2022/08/28 12:53:47;;;;;;;9.90;6.00;;;21.10;98.40;;;;;;5033097;28;20037;-70
2022/08/28 12:56:16;;;;;;;10.02;6.03;;;21.00;98.40;;;;;;5025508;28;20030;-70
2022/08/28 12:58:43;;;;;;;10.57;5.95;;;21.00;98.50;;;;;;5028160;28;20029;-70
2022/08/28 13:01:30;;;;;;;8.55;5.30;;;20.90;98.60;;;;;;5023899;28;20368;-70
2022/08/28 13:03:59;;;;;;;12.20;6.70;;;21.00;98.70;;;;;;5027436;28;20036;-70
2022/08/28 13:06:31;;;;;;;9.57;5.97;;;21.00;98.60;;;;;;5004873;28;20844;-71
2022/08/28 13:09:03;;;;;;;12.77;6.28;;;20.90;98.70;;;;;;5019882;28;20060;-70
2022/08/28 13:11:35;;;;;;;9.00;5.65;;;21.00;98.80;;;;;;5029234;28;20155;-70
2022/08/28 13:14:01;;;;;;;12.07;6.35;;;21.00;98.70;;;;;;5026034;28;20358;-70